首页
METAR-TAF:

METAR-TAF

机场 :

內排國際機場

河內, 越南

纬度: 21-01N, 经度: 105-48E, 海拔: 6米

当前天气观测

该预报发布于25分钟前的21:30 UTC
风速4节,风向东转东南
温度 24°C
湿度 100%
气压 1014 hPa
能见度10公里或以上
多云层高于700英尺
少量云层高于3000英尺, 积雨云.
小雨

METAR: VVNB 222130Z 11004KT 9999 -RA BKN007 FEW030CB 24/24 Q1014 NOSIG

时间: 04:55 (21:55 UTC)

预报

该预报发布于4小时和55分钟前的17:00 UTC
预报有效从22日的 18点(UTC)到 23日的 18点(UTC)
风速7节,风向东转东南
能見度: 7000
散云层高于1300英尺
多云层高于4000英尺
小雨
短暂存在
从 22日的 19点(UTC)到 22日的 23点(UTC)
能見度: 3000
多云层高于1000英尺
少量云层高于2700英尺, 积雨云.
阴天层高于4000英尺
雷暴, 大雨
短暂存在
从 23日的 00点(UTC)到 23日的 06点(UTC)
能見度: 4000
多云层高于1300英尺
少量云层高于2700英尺, 积雨云.
阴天层高于4000英尺

TAF: VVNB 221700Z 2218/2318 12007KT 7000 -RA SCT013 BKN040 TEMPO 2219/2223 3000 +TSRA BKN010 FEW027CB OVC040 TEMPO 2300/2306 4000 RA BKN013 FEW027CB OVC040

超过4000个机场的气象观测和天气预报(METAR&TAF报告)。

可查询的气象台以黄色和红色小点在地图上表示。

将鼠标移到小点上方,可查看气象台名称。

然后点击查看天气观测和预报。

如需切换地图:点击带黑十字的绿色按钮放大地图;点击带横线的绿色按钮缩小地图;或者点击绿色箭头查看邻近地区的地图。


METAR-TAF: